Station Historical Data
Daily Summary for January 15, 2017 Units:  English    Metric   Both
Next Day »
Daily Weekly Monthly Yearly Custom
  High: Low: Average:
Temperature: 43.3 °F 33.2 °F 36.6 °F
Dew Point: 38.8 °F 30.9 °F 34.4 °F
Humidity: 100% 80% 92%
Wind Speed: 4.0mph 0.0mph 0.3mph
Wind Gust: 9.0mph - -
Wind- - SSE
Pressure: 30.23 in 30.15 in -
Precipitation: 0.00 in    
Historical Graphs
 
 
Tabular Data for January 15, 2017
Time Temperature Dew Point Pressure Wind Wind Speed Wind Gust Humidity Rainfall Rate (Hourly) solar Conditions
00:00 36.6 °F 35.0 °F 30.19 in Calm     94% 0.00 in 0.00 W/m2
00:05 36.6 °F 34.8 °F 30.19 in Calm     93% 0.00 in 0.00 W/m2
00:10 36.5 °F 34.7 °F 30.19 in Calm     93% 0.00 in 0.00 W/m2
00:15 36.4 °F 34.6 °F 30.19 in Calm     93% 0.00 in 0.00 W/m2
00:20 36.4 °F 34.8 °F 30.19 in Calm     94% 0.00 in 0.00 W/m2
00:25 36.4 °F 34.8 °F 30.18 in Calm     94% 0.00 in 0.00 W/m2
00:30 36.3 °F 34.7 °F 30.18 in Calm     94% 0.00 in 0.00 W/m2
00:35 36.3 °F 34.7 °F 30.18 in Calm     94% 0.00 in 0.00 W/m2
00:40 36.3 °F 34.7 °F 30.18 in Calm     94% 0.00 in 0.00 W/m2
00:45 36.4 °F 34.8 °F 30.18 in Calm     94% 0.00 in 0.00 W/m2
00:51 36.5 °F 34.9 °F 30.18 in Calm     94% 0.00 in 0.00 W/m2
00:56 36.4 °F 34.8 °F 30.18 in Calm     94% 0.00 in 0.00 W/m2
01:01 36.4 °F 34.8 °F 30.18 in Calm     94% 0.00 in 0.00 W/m2
01:06 36.2 °F 34.9 °F 30.18 in Calm     95% 0.00 in 0.00 W/m2
01:11 36.1 °F 34.8 °F 30.18 in Calm     95% 0.00 in 0.00 W/m2
01:16 35.8 °F 34.2 °F 30.18 in Calm     94% 0.00 in 0.00 W/m2
01:21 35.7 °F 34.2 °F 30.18 in Calm     94% 0.00 in 0.00 W/m2
01:26 35.6 °F 34.0 °F 30.17 in Calm     94% 0.00 in 0.00 W/m2
01:31 35.5 °F 34.0 °F 30.17 in Calm     94% 0.00 in 0.00 W/m2
01:36 35.3 °F 33.8 °F 30.18 in Calm     94% 0.00 in 0.00 W/m2
01:41 35.2 °F 33.7 °F 30.18 in Calm     94% 0.00 in 0.00 W/m2
01:46 35.2 °F 33.7 °F 30.18 in Calm     94% 0.00 in 0.00 W/m2
01:51 35.1 °F 33.5 °F 30.17 in Calm     94% 0.00 in 0.00 W/m2
01:56 35.0 °F 33.5 °F 30.18 in Calm     94% 0.00 in 0.00 W/m2
02:01 35.0 °F 33.7 °F 30.18 in Calm     95% 0.00 in 0.00 W/m2
02:06 35.0 °F 33.7 °F 30.18 in Calm     95% 0.00 in 0.00 W/m2
02:11 35.0 °F 33.7 °F 30.18 in Calm     95% 0.00 in 0.00 W/m2
02:16 35.0 °F 33.7 °F 30.18 in Calm     95% 0.00 in 0.00 W/m2
02:21 35.0 °F 33.7 °F 30.18 in Calm     95% 0.00 in 0.00 W/m2
02:26 35.1 °F 33.8 °F 30.18 in Calm     95% 0.00 in 0.00 W/m2
02:31 35.1 °F 33.8 °F 30.18 in Calm     95% 0.00 in 0.00 W/m2
02:36 35.1 °F 33.8 °F 30.19 in Calm     95% 0.00 in 0.00 W/m2
02:41 35.2 °F 33.9 °F 30.19 in Calm     95% 0.00 in 0.00 W/m2
02:46 35.2 °F 33.9 °F 30.19 in Calm     95% 0.00 in 0.00 W/m2
02:51 35.2 °F 33.9 °F 30.19 in Calm     95% 0.00 in 0.00 W/m2
02:56 35.3 °F 34.0 °F 30.19 in Calm     95% 0.00 in 0.00 W/m2
03:01 35.3 °F 34.0 °F 30.19 in Calm     95% 0.00 in 0.00 W/m2
03:06 35.2 °F 33.9 °F 30.19 in Calm     95% 0.00 in 0.00 W/m2
03:11 35.2 °F 33.9 °F 30.19 in Calm     95% 0.00 in 0.00 W/m2
03:16 35.2 °F 33.9 °F 30.18 in Calm   2.0 mph 95% 0.00 in 0.00 W/m2
03:21 35.1 °F 33.8 °F 30.19 in Calm     95% 0.00 in 0.00 W/m2
03:26 35.1 °F 33.8 °F 30.18 in Calm     95% 0.00 in 0.00 W/m2
03:31 35.0 °F 33.7 °F 30.18 in Calm     95% 0.00 in 0.00 W/m2
03:36 35.0 °F 33.7 °F 30.18 in Calm     95% 0.00 in 0.00 W/m2
03:41 35.0 °F 33.7 °F 30.18 in Calm     95% 0.00 in 0.00 W/m2
03:46 34.9 °F 33.6 °F 30.18 in Calm     95% 0.00 in 0.00 W/m2
03:51 34.9 °F 33.6 °F 30.18 in Calm     95% 0.00 in 0.00 W/m2
03:56 34.7 °F 33.4 °F 30.18 in Calm     95% 0.00 in 0.00 W/m2
04:01 34.7 °F 33.4 °F 30.18 in Calm     95% 0.00 in 0.00 W/m2
04:06 34.6 °F 33.3 °F 30.18 in Calm     95% 0.00 in 0.00 W/m2
04:11 34.5 °F 33.2 °F 30.18 in Calm     95% 0.00 in 0.00 W/m2
04:16 34.5 °F 33.2 °F 30.18 in Calm     95% 0.00 in 0.00 W/m2
04:21 34.4 °F 33.1 °F 30.18 in Calm     95% 0.00 in 0.00 W/m2
04:26 34.4 °F 33.1 °F 30.18 in Calm     95% 0.00 in 0.00 W/m2
04:31 34.4 °F 33.1 °F 30.18 in Calm     95% 0.00 in 0.00 W/m2
04:36 34.3 °F 32.8 °F 30.18 in Calm     94% 0.00 in 0.00 W/m2
04:41 34.2 °F 32.7 °F 30.18 in Calm     94% 0.00 in 0.00 W/m2
04:46 34.2 °F 32.7 °F 30.18 in Calm     94% 0.00 in 0.00 W/m2
04:51 34.1 °F 32.6 °F 30.18 in Calm     94% 0.00 in 0.00 W/m2
04:56 33.9 °F 32.4 °F 30.18 in Calm     94% 0.00 in 0.00 W/m2
05:01 33.9 °F 32.4 °F 30.18 in Calm     94% 0.00 in 0.00 W/m2
05:06 33.8 °F 32.3 °F 30.18 in Calm     94% 0.00 in 0.00 W/m2
05:11 33.6 °F 32.1 °F 30.18 in Calm     94% 0.00 in 0.00 W/m2
05:17 33.4 °F 31.9 °F 30.18 in East 1.0 mph 5.0 mph 94% 0.00 in 0.00 W/m2
05:22 33.4 °F 31.9 °F 30.18 in East 1.0 mph 2.0 mph 94% 0.00 in 0.00 W/m2
05:27 33.3 °F 31.8 °F 30.17 in Calm   1.0 mph 94% 0.00 in 0.00 W/m2
05:32 33.4 °F 31.9 °F 30.17 in Calm     94% 0.00 in 0.00 W/m2
05:37 33.4 °F 31.9 °F 30.17 in Calm     94% 0.00 in 0.00 W/m2
05:42 33.4 °F 31.9 °F 30.17 in East 1.0 mph 6.0 mph 94% 0.00 in 0.00 W/m2
05:47 33.4 °F 31.9 °F 30.18 in East 1.0 mph 4.0 mph 94% 0.00 in 0.00 W/m2
05:52 33.5 °F 32.0 °F 30.18 in East 2.0 mph 4.0 mph 94% 0.00 in 0.00 W/m2
05:57 33.5 °F 32.0 °F 30.17 in East 1.0 mph 4.0 mph 94% 0.00 in 0.00 W/m2
06:02 33.6 °F 32.1 °F 30.17 in Calm   7.0 mph 94% 0.00 in 0.00 W/m2
06:07 33.7 °F 32.2 °F 30.17 in East 2.0 mph 4.0 mph 94% 0.00 in 0.00 W/m2
06:12 33.7 °F 32.2 °F 30.18 in Calm   1.0 mph 94% 0.00 in 0.00 W/m2
06:17 33.8 °F 32.0 °F 30.17 in Calm   1.0 mph 93% 0.00 in 0.00 W/m2
06:22 33.8 °F 32.0 °F 30.18 in East 2.0 mph 5.0 mph 93% 0.00 in 0.00 W/m2
06:27 33.8 °F 32.0 °F 30.18 in Calm     93% 0.00 in 0.00 W/m2
06:32 33.9 °F 31.8 °F 30.17 in Calm     92% 0.00 in 0.00 W/m2
06:37 33.9 °F 31.8 °F 30.18 in Calm     92% 0.00 in 0.00 W/m2
06:42 34.0 °F 31.9 °F 30.18 in Calm   5.0 mph 92% 0.00 in 0.00 W/m2
06:47 34.0 °F 31.6 °F 30.18 in Calm   2.0 mph 91% 0.00 in 0.00 W/m2
06:52 34.0 °F 31.6 °F 30.17 in Calm   4.0 mph 91% 0.00 in 0.00 W/m2
06:57 34.0 °F 31.6 °F 30.17 in Calm   5.0 mph 91% 0.00 in 0.00 W/m2
07:02 34.0 °F 31.6 °F 30.17 in Calm     91% 0.00 in 0.00 W/m2
07:07 34.0 °F 31.6 °F 30.17 in Calm   1.0 mph 91% 0.00 in 0.00 W/m2
07:12 34.0 °F 31.9 °F 30.17 in East 1.0 mph 5.0 mph 92% 0.00 in 0.00 W/m2
07:17 33.9 °F 31.8 °F 30.17 in East 2.0 mph 9.0 mph 92% 0.00 in 5.00 W/m2
07:22 33.8 °F 31.7 °F 30.17 in East 1.0 mph 4.0 mph 92% 0.00 in 7.00 W/m2
07:27 33.8 °F 31.7 °F 30.17 in Calm   7.0 mph 92% 0.00 in 11.00 W/m2
07:32 33.7 °F 31.4 °F 30.18 in East 1.0 mph 4.0 mph 91% 0.00 in 14.00 W/m2
07:37 33.7 °F 31.6 °F 30.18 in East 4.0 mph 4.0 mph 92% 0.00 in 16.00 W/m2
07:42 33.5 °F 31.2 °F 30.18 in Calm     91% 0.00 in 21.00 W/m2
07:47 33.3 °F 31.0 °F 30.18 in Calm     91% 0.00 in 30.00 W/m2
07:52 33.2 °F 30.9 °F 30.18 in Calm     91% 0.00 in 40.00 W/m2
07:57 33.2 °F 30.9 °F 30.18 in Calm     91% 0.00 in 54.00 W/m2
08:02 33.2 °F 31.1 °F 30.18 in Calm     92% 0.00 in 70.00 W/m2
08:07 33.2 °F 30.9 °F 30.18 in Calm     91% 0.00 in 84.00 W/m2
08:12 33.3 °F 31.0 °F 30.19 in Calm     91% 0.00 in 105.00 W/m2
08:17 33.4 °F 31.1 °F 30.19 in Calm     91% 0.00 in 116.00 W/m2
08:22 33.5 °F 31.2 °F 30.19 in Calm     91% 0.00 in 134.00 W/m2
08:27 33.7 °F 31.6 °F 30.19 in Calm     92% 0.00 in 160.00 W/m2
08:32 33.7 °F 31.6 °F 30.19 in Calm     92% 0.00 in 174.00 W/m2
08:37 33.7 °F 31.6 °F 30.19 in Calm     92% 0.00 in 193.00 W/m2
08:42 33.9 °F 31.6 °F 30.19 in Calm     91% 0.00 in 211.00 W/m2
08:47 34.2 °F 31.9 °F 30.19 in Calm     91% 0.00 in 229.00 W/m2
08:52 34.4 °F 32.0 °F 30.19 in Calm     91% 0.00 in 243.00 W/m2
08:57 34.7 °F 32.1 °F 30.19 in Calm     90% 0.00 in 264.00 W/m2
09:02 35.0 °F 32.4 °F 30.19 in Calm     90% 0.00 in 272.00 W/m2
09:07 35.3 °F 32.4 °F 30.19 in Calm   4.0 mph 89% 0.00 in 287.00 W/m2
09:12 35.7 °F 33.1 °F 30.19 in Calm   2.0 mph 90% 0.00 in 287.00 W/m2
09:17 36.0 °F 33.1 °F 30.19 in Calm     89% 0.00 in 313.00 W/m2
09:22 36.2 °F 33.0 °F 30.19 in Calm   2.0 mph 88% 0.00 in 338.00 W/m2
09:27 36.5 °F 33.6 °F 30.18 in East 2.0 mph 4.0 mph 89% 0.00 in 352.00 W/m2
09:32 36.7 °F 33.2 °F 30.18 in Calm   4.0 mph 87% 0.00 in 364.00 W/m2
09:37 37.0 °F 33.5 °F 30.18 in Calm   3.0 mph 87% 0.00 in 376.00 W/m2
09:42 37.3 °F 33.5 °F 30.18 in Calm   1.0 mph 86% 0.00 in 387.00 W/m2
09:48 37.7 °F 34.2 °F 30.18 in East 2.0 mph 5.0 mph 87% 0.00 in 399.00 W/m2
09:53 38.0 °F 34.5 °F 30.18 in East 2.0 mph 5.0 mph 87% 0.00 in 410.00 W/m2
09:58 38.4 °F 34.6 °F 30.18 in East 4.0 mph 5.0 mph 86% 0.00 in 418.00 W/m2
10:03 38.8 °F 34.7 °F 30.18 in Calm   1.0 mph 85% 0.00 in 429.00 W/m2
10:08 39.2 °F 35.1 °F 30.18 in Calm     85% 0.00 in 439.00 W/m2
10:13 39.6 °F 35.5 °F 30.19 in Calm     85% 0.00 in 448.00 W/m2
10:18 39.7 °F 34.7 °F 30.19 in Calm     82% 0.00 in 445.00 W/m2
10:23 39.9 °F 34.5 °F 30.18 in Calm     81% 0.00 in 466.00 W/m2
10:28 40.3 °F 34.9 °F 30.19 in Calm   2.0 mph 81% 0.00 in 475.00 W/m2
10:33 40.4 °F 35.0 °F 30.19 in East 1.0 mph 2.0 mph 81% 0.00 in 483.00 W/m2
10:38 40.6 °F 35.8 °F 30.19 in East 1.0 mph 1.0 mph 83% 0.00 in 490.00 W/m2
10:43 40.6 °F 35.8 °F 30.19 in Calm   2.0 mph 83% 0.00 in 496.00 W/m2
10:48 40.5 °F 36.0 °F 30.19 in Calm   2.0 mph 84% 0.00 in 501.00 W/m2
10:53 40.6 °F 36.2 °F 30.19 in Calm   1.0 mph 84% 0.00 in 508.00 W/m2
10:58 40.7 °F 36.0 °F 30.19 in Calm   3.0 mph 83% 0.00 in 515.00 W/m2
11:03 41.1 °F 37.2 °F 30.18 in Calm   1.0 mph 86% 0.00 in 520.00 W/m2
11:08 41.4 °F 36.0 °F 30.18 in ENE 1.0 mph 2.0 mph 81% 0.00 in 526.00 W/m2
11:13 41.7 °F 36.3 °F 30.18 in NNW 1.0 mph 5.0 mph 81% 0.00 in 531.00 W/m2
11:18 41.8 °F 36.4 °F 30.18 in NNW 1.0 mph 1.0 mph 81% 0.00 in 533.00 W/m2
11:23 41.8 °F 36.7 °F 30.17 in NNW 1.0 mph 1.0 mph 82% 0.00 in 538.00 W/m2
11:28 41.7 °F 36.3 °F 30.17 in Calm   2.0 mph 81% 0.00 in 541.00 W/m2
11:33 41.8 °F 36.4 °F 30.17 in NNW 2.0 mph 2.0 mph 81% 0.00 in 545.00 W/m2
11:38 41.9 °F 36.8 °F 30.17 in Calm   3.0 mph 82% 0.00 in 548.00 W/m2
11:43 41.9 °F 36.8 °F 30.17 in NW 2.0 mph 3.0 mph 82% 0.00 in 552.00 W/m2
11:48 41.9 °F 36.5 °F 30.17 in NW 3.0 mph 3.0 mph 81% 0.00 in 552.00 W/m2
11:53 41.9 °F 36.2 °F 30.17 in NW 1.0 mph 2.0 mph 80% 0.00 in 554.00 W/m2
11:58 41.8 °F 37.0 °F 30.17 in NW 1.0 mph 2.0 mph 83% 0.00 in 554.00 W/m2
12:03 41.6 °F 37.1 °F 30.17 in NW 1.0 mph 4.0 mph 84% 0.00 in 557.00 W/m2
12:08 41.2 °F 37.0 °F 30.17 in NW 3.0 mph 4.0 mph 85% 0.00 in 555.00 W/m2
12:13 40.5 °F 36.3 °F 30.17 in Calm   1.0 mph 85% 0.00 in 557.00 W/m2
12:18 39.8 °F 36.0 °F 30.17 in NW 2.0 mph 3.0 mph 86% 0.00 in 557.00 W/m2
12:23 39.0 °F 35.8 °F 30.17 in NNW 1.0 mph 5.0 mph 88% 0.00 in 469.00 W/m2
12:28 38.2 °F 35.2 °F 30.18 in NW 2.0 mph 6.0 mph 89% 0.00 in 380.00 W/m2
12:33 37.3 °F 34.4 °F 30.18 in Calm   4.0 mph 89% 0.00 in 299.00 W/m2
12:38 36.6 °F 34.2 °F 30.17 in Calm     91% 0.00 in 243.00 W/m2
12:43 36.2 °F 33.8 °F 30.17 in Calm     91% 0.00 in 425.00 W/m2
12:48 35.9 °F 33.8 °F 30.17 in Calm     92% 0.00 in 374.00 W/m2
12:53 35.9 °F 34.1 °F 30.17 in Calm   1.0 mph 93% 0.00 in 541.00 W/m2
12:58 36.0 °F 34.2 °F 30.16 in Calm     93% 0.00 in 534.00 W/m2
13:03 36.2 °F 34.4 °F 30.16 in Calm     93% 0.00 in 531.00 W/m2
13:08 36.4 °F 34.8 °F 30.16 in Calm     94% 0.00 in 526.00 W/m2
13:13 36.7 °F 35.1 °F 30.16 in Calm     94% 0.00 in 522.00 W/m2
13:18 37.1 °F 35.5 °F 30.15 in Calm     94% 0.00 in 517.00 W/m2
13:23 37.7 °F 36.1 °F 30.15 in Calm     94% 0.00 in 510.00 W/m2
13:29 38.2 °F 36.4 °F 30.15 in Calm     93% 0.00 in 504.00 W/m2
13:34 38.8 °F 37.0 °F 30.15 in Calm     93% 0.00 in 497.00 W/m2
13:39 39.2 °F 37.3 °F 30.15 in Calm     93% 0.00 in 490.00 W/m2
13:44 39.6 °F 37.5 °F 30.15 in Calm     92% 0.00 in 482.00 W/m2
13:49 40.1 °F 38.0 °F 30.15 in Calm     92% 0.00 in 476.00 W/m2
13:54 40.5 °F 38.4 °F 30.15 in Calm     92% 0.00 in 468.00 W/m2
13:59 40.8 °F 38.4 °F 30.15 in Calm     91% 0.00 in 457.00 W/m2
14:04 41.1 °F 38.1 °F 30.15 in SSE 4.0 mph 4.0 mph 89% 0.00 in 448.00 W/m2
14:09 41.5 °F 37.9 °F 30.15 in Calm     87% 0.00 in 441.00 W/m2
14:14 41.9 °F 38.3 °F 30.15 in Calm     87% 0.00 in 431.00 W/m2
14:19 42.1 °F 37.9 °F 30.15 in Calm     85% 0.00 in 420.00 W/m2
14:24 42.4 °F 37.6 °F 30.16 in Calm     83% 0.00 in 411.00 W/m2
14:29 42.6 °F 37.8 °F 30.16 in Calm     83% 0.00 in 399.00 W/m2
14:34 43.0 °F 38.2 °F 30.15 in Calm     83% 0.00 in 387.00 W/m2
14:39 43.3 °F 38.8 °F 30.15 in South 2.0 mph 4.0 mph 84% 0.00 in 376.00 W/m2
14:44 43.0 °F 38.5 °F 30.15 in Calm   1.0 mph 84% 0.00 in 366.00 W/m2
14:49 42.6 °F 38.4 °F 30.15 in Calm     85% 0.00 in 353.00 W/m2
14:54 42.2 °F 38.6 °F 30.15 in Calm     87% 0.00 in 341.00 W/m2
14:56 42.0 °F 38.4 °F 30.15 in Calm     87% 0.00 in 336.00 W/m2
15:01 41.6 °F 38.3 °F 30.15 in Calm     88% 0.00 in 323.00 W/m2
15:06 41.4 °F 37.8 °F 30.15 in Calm     87% 0.00 in 309.00 W/m2
15:11 41.3 °F 38.0 °F 30.15 in Calm     88% 0.00 in 295.00 W/m2
15:16 41.2 °F 37.9 °F 30.15 in Calm     88% 0.00 in 287.00 W/m2
15:21 41.1 °F 38.1 °F 30.15 in Calm     89% 0.00 in 271.00 W/m2
15:26 41.0 °F 38.0 °F 30.15 in Calm     89% 0.00 in 257.00 W/m2
15:31 40.9 °F 38.2 °F 30.15 in Calm     90% 0.00 in 239.00 W/m2
15:36 40.9 °F 38.2 °F 30.15 in Calm     90% 0.00 in 221.00 W/m2
15:41 40.9 °F 38.2 °F 30.15 in Calm     90% 0.00 in 204.00 W/m2
15:46 41.0 °F 38.6 °F 30.15 in Calm     91% 0.00 in 188.00 W/m2
15:51 40.9 °F 38.2 °F 30.15 in Calm     90% 0.00 in 169.00 W/m2
15:56 40.7 °F 38.0 °F 30.15 in Calm     90% 0.00 in 153.00 W/m2
16:01 40.6 °F 37.9 °F 30.15 in Calm     90% 0.00 in 132.00 W/m2
16:06 40.5 °F 38.1 °F 30.15 in Calm     91% 0.00 in 114.00 W/m2
16:11 40.3 °F 37.6 °F 30.15 in Calm     90% 0.00 in 98.00 W/m2
16:16 40.1 °F 37.7 °F 30.16 in Calm     91% 0.00 in 83.00 W/m2
16:21 39.8 °F 37.4 °F 30.16 in Calm     91% 0.00 in 67.00 W/m2
16:26 39.5 °F 37.1 °F 30.16 in Calm     91% 0.00 in 53.00 W/m2
16:31 39.3 °F 36.9 °F 30.16 in Calm     91% 0.00 in 40.00 W/m2
16:36 39.0 °F 36.6 °F 30.16 in Calm     91% 0.00 in 32.00 W/m2
16:41 38.7 °F 36.3 °F 30.16 in Calm     91% 0.00 in 23.00 W/m2
16:46 38.3 °F 35.9 °F 30.16 in Calm     91% 0.00 in 16.00 W/m2
16:51 38.0 °F 35.6 °F 30.16 in Calm     91% 0.00 in 12.00 W/m2
16:56 37.7 °F 35.6 °F 30.16 in Calm     92% 0.00 in 11.00 W/m2
17:01 37.5 °F 35.4 °F 30.16 in Calm     92% 0.00 in 9.00 W/m2
17:06 37.1 °F 35.0 °F 30.17 in Calm     92% 0.00 in 7.00 W/m2
17:11 36.7 °F 34.6 °F 30.17 in Calm     92% 0.00 in 5.00 W/m2
17:16 36.4 °F 34.3 °F 30.17 in Calm     92% 0.00 in 0.00 W/m2
17:21 36.1 °F 34.3 °F 30.17 in Calm     93% 0.00 in 0.00 W/m2
17:26 35.9 °F 34.1 °F 30.17 in Calm     93% 0.00 in 0.00 W/m2
17:32 35.6 °F 33.8 °F 30.18 in Calm     93% 0.00 in 0.00 W/m2
17:37 35.3 °F 33.5 °F 30.18 in Calm     93% 0.00 in 0.00 W/m2
17:42 35.0 °F 33.2 °F 30.19 in Calm     93% 0.00 in 0.00 W/m2
17:47 34.6 °F 32.8 °F 30.19 in Calm     93% 0.00 in 0.00 W/m2
17:52 34.2 °F 32.4 °F 30.19 in Calm     93% 0.00 in 0.00 W/m2
17:57 34.0 °F 32.2 °F 30.19 in Calm     93% 0.00 in 0.00 W/m2
18:02 33.9 °F 32.4 °F 30.20 in Calm     94% 0.00 in 0.00 W/m2
18:07 33.7 °F 32.2 °F 30.19 in NW 1.0 mph 3.0 mph 94% 0.00 in 0.00 W/m2
18:12 33.8 °F 32.3 °F 30.19 in Calm     94% 0.00 in 0.00 W/m2
18:17 33.8 °F 32.3 °F 30.20 in Calm     94% 0.00 in 0.00 W/m2
18:22 34.0 °F 32.5 °F 30.19 in Calm     94% 0.00 in 0.00 W/m2
18:27 34.1 °F 32.6 °F 30.19 in Calm     94% 0.00 in 0.00 W/m2
18:32 34.2 °F 32.9 °F 30.19 in Calm     95% 0.00 in 0.00 W/m2
18:37 34.3 °F 33.0 °F 30.19 in Calm     95% 0.00 in 0.00 W/m2
18:42 34.3 °F 33.0 °F 30.20 in Calm     95% 0.00 in 0.00 W/m2
18:47 34.4 °F 33.1 °F 30.19 in Calm     95% 0.00 in 0.00 W/m2
18:52 34.5 °F 33.0 °F 30.20 in Calm     94% 0.00 in 0.00 W/m2
18:57 34.6 °F 33.3 °F 30.20 in Calm     95% 0.00 in 0.00 W/m2
19:02 34.6 °F 33.3 °F 30.20 in Calm     95% 0.00 in 0.00 W/m2
19:07 34.7 °F 33.4 °F 30.20 in Calm     95% 0.00 in 0.00 W/m2
19:12 34.8 °F 33.5 °F 30.20 in Calm     95% 0.00 in 0.00 W/m2
19:17 35.0 °F 33.7 °F 30.20 in Calm     95% 0.00 in 0.00 W/m2
19:22 35.2 °F 33.9 °F 30.19 in Calm     95% 0.00 in 0.00 W/m2
19:27 35.3 °F 34.0 °F 30.19 in Calm     95% 0.00 in 0.00 W/m2
19:32 35.4 °F 34.1 °F 30.20 in North 2.0 mph 2.0 mph 95% 0.00 in 0.00 W/m2
19:37 35.6 °F 34.3 °F 30.19 in NNE 2.0 mph 3.0 mph 95% 0.00 in 0.00 W/m2
19:42 35.7 °F 34.4 °F 30.19 in NNE 4.0 mph 4.0 mph 95% 0.00 in 0.00 W/m2
19:47 35.7 °F 34.4 °F 30.19 in Calm     95% 0.00 in 0.00 W/m2
19:52 35.8 °F 34.5 °F 30.19 in Calm     95% 0.00 in 0.00 W/m2
19:57 35.9 °F 34.6 °F 30.19 in Calm     95% 0.00 in 0.00 W/m2
20:02 35.9 °F 34.6 °F 30.19 in Calm     95% 0.00 in 0.00 W/m2
20:07 36.0 °F 34.7 °F 30.19 in Calm     95% 0.00 in 0.00 W/m2
20:12 36.1 °F 34.8 °F 30.20 in Calm     95% 0.00 in 0.00 W/m2
20:17 36.2 °F 34.9 °F 30.20 in Calm     95% 0.00 in 0.00 W/m2
20:22 36.2 °F 34.9 °F 30.20 in Calm     95% 0.00 in 0.00 W/m2
20:27 36.2 °F 34.9 °F 30.20 in Calm     95% 0.00 in 0.00 W/m2
20:32 36.3 °F 35.0 °F 30.20 in Calm     95% 0.00 in 0.00 W/m2
20:37 36.3 °F 35.0 °F 30.20 in Calm     95% 0.00 in 0.00 W/m2
20:42 36.4 °F 35.1 °F 30.20 in Calm     95% 0.00 in 0.00 W/m2
20:47 36.4 °F 35.1 °F 30.20 in Calm     95% 0.00 in 0.00 W/m2
20:52 36.4 °F 35.1 °F 30.20 in Calm     95% 0.00 in 0.00 W/m2
20:58 36.6 °F 35.3 °F 30.21 in Calm     95% 0.00 in 0.00 W/m2
21:03 36.6 °F 35.3 °F 30.21 in Calm     95% 0.00 in 0.00 W/m2
21:08 36.6 °F 36.6 °F 30.21 in Calm     100% 0.00 in 0.00 W/m2
21:13 36.7 °F 35.4 °F 30.21 in Calm     95% 0.00 in 0.00 W/m2
21:18 36.8 °F 35.5 °F 30.21 in Calm     95% 0.00 in 0.00 W/m2
21:23 36.8 °F 35.5 °F 30.22 in Calm     95% 0.00 in 0.00 W/m2
21:28 36.8 °F 35.5 °F 30.22 in Calm     95% 0.00 in 0.00 W/m2
21:33 36.7 °F 35.4 °F 30.22 in Calm     95% 0.00 in 0.00 W/m2
21:38 36.6 °F 35.3 °F 30.22 in Calm     95% 0.00 in 0.00 W/m2
21:43 36.5 °F 35.2 °F 30.22 in Calm     95% 0.00 in 0.00 W/m2
21:48 36.4 °F 35.1 °F 30.23 in Calm     95% 0.00 in 0.00 W/m2
21:53 36.2 °F 34.9 °F 30.23 in Calm     95% 0.00 in 0.00 W/m2
21:58 36.0 °F 34.7 °F 30.22 in Calm     95% 0.00 in 0.00 W/m2
22:03 35.9 °F 34.6 °F 30.22 in Calm     95% 0.00 in 0.00 W/m2
22:08 35.8 °F 34.5 °F 30.22 in Calm     95% 0.00 in 0.00 W/m2
22:13 35.7 °F 34.4 °F 30.22 in Calm     95% 0.00 in 0.00 W/m2
22:18 35.7 °F 34.4 °F 30.23 in Calm     95% 0.00 in 0.00 W/m2
22:23 35.6 °F 34.3 °F 30.23 in Calm     95% 0.00 in 0.00 W/m2
22:28 35.5 °F 34.2 °F 30.23 in Calm     95% 0.00 in 0.00 W/m2
22:33 35.5 °F 34.2 °F 30.23 in Calm     95% 0.00 in 0.00 W/m2
22:38 35.5 °F 34.2 °F 30.23 in Calm     95% 0.00 in 0.00 W/m2
22:43 35.5 °F 34.2 °F 30.23 in Calm     95% 0.00 in 0.00 W/m2
22:48 35.3 °F 34.0 °F 30.23 in Calm     95% 0.00 in 0.00 W/m2
22:53 35.2 °F 33.7 °F 30.23 in Calm     94% 0.00 in 0.00 W/m2
22:58 35.1 °F 33.5 °F 30.23 in Calm     94% 0.00 in 0.00 W/m2
23:03 35.0 °F 33.7 °F 30.23 in Calm     95% 0.00 in 0.00 W/m2
23:08 35.0 °F 33.7 °F 30.22 in Calm     95% 0.00 in 0.00 W/m2
23:13 35.0 °F 33.7 °F 30.22 in Calm     95% 0.00 in 0.00 W/m2
23:18 35.0 °F 33.7 °F 30.22 in NE 2.0 mph 3.0 mph 95% 0.00 in 0.00 W/m2
23:23 35.1 °F 33.8 °F 30.22 in NE 2.0 mph 5.0 mph 95% 0.00 in 0.00 W/m2
23:28 35.1 °F 33.8 °F 30.22 in ENE 1.0 mph 4.0 mph 95% 0.00 in 0.00 W/m2
23:33 35.1 °F 33.8 °F 30.22 in ENE 3.0 mph 4.0 mph 95% 0.00 in 0.00 W/m2
23:38 35.2 °F 33.9 °F 30.22 in ENE 2.0 mph 3.0 mph 95% 0.00 in 0.00 W/m2
23:43 35.2 °F 33.9 °F 30.22 in Calm   1.0 mph 95% 0.00 in 0.00 W/m2
23:48 35.2 °F 33.9 °F 30.22 in Calm     95% 0.00 in 0.00 W/m2
23:53 35.3 °F 34.0 °F 30.22 in Calm     95% 0.00 in 0.00 W/m2
23:58 35.4 °F 34.1 °F 30.22 in Calm     95% 0.00 in 0.00 W/m2
Foresthill Weather
 WU-history PHP script courtesy of   Juneau County Weather.
powered by Cumulus v1.9.3 (1059)
Ambient Weather VWS v14.00
Top Contact Website Map Copyright © 2007 - 2018 Foresthillweather.com Never base important decisions on this or any weather information obtained from the Internet